createdAt,value
2022-12-15T00:02:00.545Z,76.80
2022-12-15T00:05:04.987Z,76.97
2022-12-15T00:08:08.890Z,76.35
2022-12-15T00:11:14.144Z,77.01
2022-12-15T00:14:18.542Z,76.64
2022-12-15T00:17:22.629Z,77.03
2022-12-15T00:20:27.333Z,77.16
2022-12-15T00:23:31.770Z,77.32
2022-12-15T00:26:35.938Z,77.20
2022-12-15T00:29:40.219Z,77.11
2022-12-15T00:32:44.534Z,77.00
2022-12-15T00:35:48.310Z,77.35
2022-12-15T00:38:43.582Z,76.88
2022-12-15T00:41:28.875Z,77.54
2022-12-15T00:44:18.913Z,77.35
2022-12-15T00:47:06.874Z,77.38
2022-12-15T00:50:11.036Z,77.05
2022-12-15T00:53:15.069Z,77.35
2022-12-15T00:56:19.050Z,77.12
2022-12-15T00:59:23.090Z,76.57
2022-12-15T01:02:27.198Z,77.08
2022-12-15T01:05:31.551Z,77.37
2022-12-15T01:08:35.435Z,77.41
2022-12-15T01:11:39.658Z,77.78
2022-12-15T01:14:44.034Z,77.66
2022-12-15T01:17:48.992Z,77.83
2022-12-15T01:20:34.792Z,77.15
2022-12-15T01:23:20.306Z,77.39
2022-12-15T01:26:06.755Z,77.67
2022-12-15T01:28:52.066Z,77.92
2022-12-15T01:31:37.843Z,78.25
2022-12-15T01:34:23.815Z,77.70
2022-12-15T01:37:09.230Z,77.63
2022-12-15T01:40:13.393Z,78.16
2022-12-15T01:42:59.005Z,77.77
2022-12-15T01:45:49.768Z,77.77
2022-12-15T01:48:58.252Z,78.23
2022-12-15T01:51:48.518Z,77.72
2022-12-15T01:54:52.866Z,79.03
2022-12-15T01:57:39.211Z,78.51
2022-12-15T02:00:24.833Z,78.98
2022-12-15T02:03:12.128Z,79.44
2022-12-15T02:05:58.311Z,79.23
2022-12-15T02:08:47.534Z,79.31
2022-12-15T02:12:01.880Z,79.11
2022-12-15T02:14:54.065Z,79.75
2022-12-15T02:18:09.057Z,79.07
2022-12-15T02:21:14.181Z,79.59
2022-12-15T02:24:18.653Z,79.74
2022-12-15T02:27:13.713Z,79.88
2022-12-15T02:30:21.243Z,80.25
2022-12-15T02:33:11.506Z,79.84
2022-12-15T02:35:59.671Z,80.11
2022-12-15T02:38:45.723Z,79.77
2022-12-15T02:41:36.468Z,80.13
2022-12-15T02:44:28.970Z,79.46
2022-12-15T02:47:28.366Z,79.41
2022-12-15T02:50:29.857Z,79.28
2022-12-15T02:53:28.050Z,79.30
2022-12-15T02:56:25.761Z,79.17
2022-12-15T02:59:16.259Z,79.84
2022-12-15T03:02:06.476Z,79.46
2022-12-15T03:04:53.358Z,79.20
2022-12-15T03:07:39.009Z,79.71
2022-12-15T03:10:25.864Z,79.63
2022-12-15T03:13:11.314Z,79.72
2022-12-15T03:15:58.371Z,79.34
2022-12-15T03:18:44.347Z,79.26
2022-12-15T03:21:30.206Z,80.06
2022-12-15T03:24:15.514Z,80.05
2022-12-15T03:27:01.050Z,79.54
2022-12-15T03:29:46.343Z,79.52
2022-12-15T03:32:31.900Z,79.75
2022-12-15T03:35:17.422Z,79.27
2022-12-15T03:38:02.683Z,79.42
2022-12-15T03:40:48.325Z,79.89
2022-12-15T03:43:34.502Z,80.11
2022-12-15T03:46:20.345Z,79.94
2022-12-15T03:49:06.019Z,79.81
2022-12-15T03:51:52.420Z,79.97
2022-12-15T03:54:37.724Z,79.87
2022-12-15T03:57:23.329Z,79.44
2022-12-15T04:00:11.393Z,79.94
2022-12-15T04:03:00.302Z,79.78
2022-12-15T04:05:45.643Z,79.38
2022-12-15T04:08:31.084Z,79.20
2022-12-15T04:11:17.019Z,79.39
2022-12-15T04:14:02.811Z,79.36
2022-12-15T04:16:48.176Z,79.59
2022-12-15T04:19:52.038Z,79.05
2022-12-15T04:22:41.846Z,79.60
2022-12-15T04:25:47.154Z,79.88
2022-12-15T04:28:51.562Z,80.06
2022-12-15T04:31:55.859Z,80.18
2022-12-15T04:34:59.914Z,79.43
2022-12-15T04:38:04.024Z,80.00
2022-12-15T04:41:08.036Z,79.70
2022-12-15T04:44:13.753Z,79.89
2022-12-15T04:47:18.231Z,80.19
2022-12-15T04:50:23.376Z,79.72
2022-12-15T04:53:36.667Z,80.00
2022-12-15T04:56:41.456Z,80.14
2022-12-15T04:59:45.789Z,79.85
2022-12-15T05:02:49.956Z,80.01
2022-12-15T05:05:54.312Z,79.92
2022-12-15T05:08:58.482Z,79.89
2022-12-15T05:12:02.665Z,79.98
2022-12-15T05:15:07.047Z,80.02
2022-12-15T05:18:11.065Z,79.83
2022-12-15T05:21:17.109Z,79.98
2022-12-15T05:24:21.395Z,79.40
2022-12-15T05:27:26.877Z,79.40
2022-12-15T05:30:31.211Z,78.87
2022-12-15T05:33:17.357Z,79.20
2022-12-15T05:36:04.333Z,79.29
2022-12-15T05:38:51.232Z,79.19
2022-12-15T05:41:36.972Z,79.28
2022-12-15T05:44:23.730Z,79.24
2022-12-15T05:47:09.469Z,79.07
2022-12-15T05:49:55.246Z,80.18
2022-12-15T05:52:44.967Z,79.56
2022-12-15T05:55:33.519Z,80.42
2022-12-15T05:58:19.050Z,79.87
2022-12-15T06:01:15.784Z,80.29
2022-12-15T06:04:02.000Z,80.14
2022-12-15T06:06:47.935Z,80.17
2022-12-15T06:09:33.842Z,79.81
2022-12-15T06:12:19.331Z,79.94
2022-12-15T06:15:05.530Z,79.60
2022-12-15T06:17:53.630Z,79.42
2022-12-15T06:20:40.556Z,79.53
2022-12-15T06:23:29.330Z,79.84
2022-12-15T06:29:22.498Z,79.67
2022-12-15T06:32:08.166Z,80.17
2022-12-15T06:34:54.281Z,79.75
2022-12-15T06:37:39.987Z,79.62
2022-12-15T06:40:25.547Z,79.16
2022-12-15T06:43:11.888Z,79.83
2022-12-15T06:45:58.027Z,79.38
2022-12-15T06:48:45.719Z,79.03
2022-12-15T06:51:32.331Z,79.22
2022-12-15T06:54:18.332Z,79.39
2022-12-15T06:57:04.499Z,79.85
2022-12-15T06:59:49.830Z,79.23
2022-12-15T07:02:36.336Z,79.72
2022-12-15T07:05:22.734Z,79.88
2022-12-15T07:08:09.991Z,79.64
2022-12-15T07:10:55.464Z,79.77
2022-12-15T07:13:41.375Z,80.02
2022-12-15T07:16:27.013Z,80.15
2022-12-15T07:19:13.488Z,79.74
2022-12-15T07:22:01.505Z,79.64
2022-12-15T07:24:46.831Z,79.84
2022-12-15T07:27:32.923Z,79.65
2022-12-15T07:30:18.934Z,79.62
2022-12-15T07:33:05.884Z,78.99
2022-12-15T07:35:55.805Z,79.22
2022-12-15T07:38:42.353Z,79.09
2022-12-15T07:41:28.816Z,79.21
2022-12-15T07:44:15.204Z,79.39
2022-12-15T07:47:01.575Z,79.50
2022-12-15T07:49:47.924Z,79.35
2022-12-15T07:52:34.902Z,79.06
2022-12-15T07:55:37.230Z,79.24
2022-12-15T07:58:30.552Z,79.28
2022-12-15T08:01:16.650Z,79.13
2022-12-15T08:04:03.938Z,79.65
2022-12-15T08:06:51.203Z,79.20
2022-12-15T08:09:39.147Z,79.36
2022-12-15T08:12:24.907Z,79.38
2022-12-15T08:15:11.815Z,79.69
2022-12-15T08:17:57.528Z,79.98
2022-12-15T08:20:43.192Z,79.51
2022-12-15T08:23:29.240Z,79.78
2022-12-15T08:26:17.756Z,79.69
2022-12-15T08:32:12.122Z,79.95
2022-12-15T08:34:58.088Z,80.21
2022-12-15T08:37:45.428Z,80.07
2022-12-15T08:40:31.411Z,80.07
2022-12-15T08:43:17.397Z,80.31
2022-12-15T08:46:04.048Z,79.87
2022-12-15T08:48:50.867Z,80.32
2022-12-15T08:51:37.003Z,79.82
2022-12-15T08:54:23.015Z,79.74
2022-12-15T08:57:08.740Z,79.92
2022-12-15T08:59:54.697Z,80.04
2022-12-15T09:02:40.483Z,79.72
2022-12-15T09:05:27.095Z,79.97
2022-12-15T09:08:12.543Z,79.99
2022-12-15T09:10:59.625Z,79.51
2022-12-15T09:13:45.892Z,80.00
2022-12-15T09:16:31.906Z,79.86
2022-12-15T09:19:18.295Z,79.48
2022-12-15T09:22:05.962Z,79.74
2022-12-15T09:24:52.378Z,79.26
2022-12-15T09:27:39.856Z,79.47
2022-12-15T09:30:26.032Z,79.56
2022-12-15T09:33:12.179Z,79.76
2022-12-15T09:35:58.848Z,80.05
2022-12-15T09:38:45.003Z,79.90
2022-12-15T09:41:33.444Z,79.43
2022-12-15T09:44:21.377Z,79.74
2022-12-15T09:47:21.537Z,79.49
2022-12-15T09:50:12.040Z,79.07
2022-12-15T09:52:59.251Z,79.13
2022-12-15T09:55:48.992Z,79.04
2022-12-15T09:58:57.534Z,79.05
2022-12-15T10:01:43.889Z,79.16
2022-12-15T10:04:57.999Z,80.33
2022-12-15T10:07:46.741Z,79.57
2022-12-15T10:10:55.381Z,79.92
2022-12-15T10:14:13.152Z,79.90
2022-12-15T10:17:06.507Z,79.80
2022-12-15T10:20:01.978Z,80.04
2022-12-15T10:22:50.274Z,79.71
2022-12-15T10:25:37.091Z,79.61
2022-12-15T10:28:51.173Z,79.70
2022-12-15T10:32:10.841Z,79.46
2022-12-15T10:34:57.109Z,79.71
2022-12-15T10:37:42.913Z,79.73
2022-12-15T10:40:55.434Z,79.36
2022-12-15T10:43:44.249Z,79.38
2022-12-15T10:46:32.663Z,79.45
2022-12-15T10:49:18.866Z,79.18
2022-12-15T10:52:05.069Z,79.31
2022-12-15T10:54:53.111Z,79.51
2022-12-15T10:58:00.034Z,79.77
2022-12-15T11:00:46.639Z,79.92
2022-12-15T11:03:39.103Z,79.57
2022-12-15T11:06:28.838Z,79.65
2022-12-15T11:09:34.815Z,79.46
2022-12-15T11:12:44.033Z,80.31
2022-12-15T11:15:38.903Z,80.24
2022-12-15T11:18:44.419Z,79.94
2022-12-15T11:21:48.887Z,80.51
2022-12-15T11:24:55.076Z,80.33
2022-12-15T11:27:45.287Z,80.21
2022-12-15T11:30:39.991Z,80.13
2022-12-15T11:33:26.178Z,80.18
2022-12-15T11:36:39.558Z,80.34
2022-12-15T11:40:13.325Z,80.63
2022-12-15T11:43:14.482Z,80.78
2022-12-15T11:46:20.439Z,80.79
2022-12-15T11:49:42.555Z,80.60
2022-12-15T11:52:43.358Z,80.96
2022-12-15T11:55:47.633Z,81.05
2022-12-15T11:59:01.475Z,81.55
2022-12-15T12:01:55.474Z,81.67
2022-12-15T12:04:50.853Z,81.45
2022-12-15T12:07:47.175Z,81.29
2022-12-15T12:10:52.653Z,81.15
2022-12-15T12:14:41.433Z,81.00
2022-12-15T12:17:43.171Z,80.79
2022-12-15T12:21:13.225Z,80.90
2022-12-15T12:24:04.101Z,81.18
2022-12-15T12:27:10.593Z,81.50
2022-12-15T12:30:03.530Z,81.72
2022-12-15T12:33:00.020Z,81.68
2022-12-15T12:35:57.497Z,81.98
2022-12-15T12:38:56.278Z,81.86
2022-12-15T12:42:00.924Z,81.72
2022-12-15T12:44:47.001Z,82.13
2022-12-15T12:47:38.204Z,82.20
2022-12-15T12:50:30.251Z,82.11
2022-12-15T12:53:33.164Z,82.30
2022-12-15T12:56:42.980Z,81.72
2022-12-15T12:59:29.101Z,81.69
2022-12-15T13:02:14.878Z,81.35
2022-12-15T13:05:05.207Z,81.30
2022-12-15T13:08:06.352Z,81.42
2022-12-15T13:10:53.766Z,81.58
2022-12-15T13:13:51.013Z,81.45
2022-12-15T13:16:40.504Z,81.66
2022-12-15T13:19:59.774Z,80.97
2022-12-15T13:22:46.267Z,81.31
2022-12-15T13:25:42.994Z,81.24
2022-12-15T13:33:16.548Z,81.30
2022-12-15T13:36:02.818Z,81.24
2022-12-15T13:38:56.034Z,81.46
2022-12-15T13:45:50.614Z,81.02
2022-12-15T13:49:15.486Z,81.03
2022-12-15T13:52:04.144Z,81.43
2022-12-15T13:54:59.357Z,81.47
2022-12-15T13:58:07.486Z,80.93
2022-12-15T14:00:55.778Z,80.89
2022-12-15T14:04:06.227Z,81.01
2022-12-15T14:07:01.694Z,80.81
2022-12-15T14:09:50.538Z,80.70
2022-12-15T14:12:39.784Z,80.54
2022-12-15T14:15:33.046Z,80.42
2022-12-15T14:18:31.835Z,80.55
2022-12-15T14:21:23.245Z,80.86
2022-12-15T14:24:38.527Z,80.91
2022-12-15T14:27:31.163Z,80.72
2022-12-15T14:30:20.459Z,80.45
2022-12-15T14:33:15.271Z,80.53
2022-12-15T14:36:02.469Z,80.41
2022-12-15T14:38:54.081Z,80.00
2022-12-15T14:41:48.941Z,80.40
2022-12-15T14:44:39.375Z,80.59
2022-12-15T14:47:35.574Z,80.37
2022-12-15T14:50:25.229Z,80.51
2022-12-15T14:53:17.719Z,80.71
2022-12-15T14:56:32.827Z,80.48
2022-12-15T14:59:20.924Z,80.40
2022-12-15T15:02:28.698Z,80.80
2022-12-15T15:05:27.439Z,80.25
2022-12-15T15:08:33.349Z,80.65
2022-12-15T15:11:48.330Z,80.14
2022-12-15T15:14:40.767Z,79.98
2022-12-15T15:17:30.432Z,80.23
2022-12-15T15:20:34.423Z,80.33
2022-12-15T15:23:21.094Z,79.91
2022-12-15T15:26:10.652Z,80.15
2022-12-15T15:28:57.134Z,79.45
2022-12-15T15:31:43.303Z,80.00
2022-12-15T15:34:29.135Z,79.84
2022-12-15T15:37:24.987Z,79.83
2022-12-15T15:40:14.783Z,80.02
2022-12-15T15:43:01.078Z,79.74
2022-12-15T15:45:49.408Z,79.82
2022-12-15T15:48:39.652Z,79.66
2022-12-15T15:51:27.370Z,79.73
2022-12-15T15:54:16.216Z,79.66
2022-12-15T15:57:02.291Z,79.72
2022-12-15T15:59:48.164Z,79.47
2022-12-15T16:02:33.819Z,79.56
2022-12-15T16:05:21.348Z,79.89
2022-12-15T16:08:09.507Z,79.92
2022-12-15T16:10:55.959Z,79.81
2022-12-15T16:13:41.607Z,79.83
2022-12-15T16:16:31.191Z,79.71
2022-12-15T16:19:17.219Z,79.39
2022-12-15T16:22:03.523Z,79.53
2022-12-15T16:24:50.842Z,79.35
2022-12-15T16:27:37.415Z,79.16
2022-12-15T16:30:26.151Z,79.34
2022-12-15T16:33:12.984Z,79.25
2022-12-15T16:35:59.452Z,79.16
2022-12-15T16:38:45.102Z,79.04
2022-12-15T16:41:31.371Z,79.00
2022-12-15T16:44:16.869Z,78.92
2022-12-15T16:47:02.400Z,78.92
2022-12-15T16:49:48.209Z,79.39
2022-12-15T16:52:34.363Z,79.39
2022-12-15T16:55:24.638Z,79.40
2022-12-15T16:58:15.202Z,79.47
2022-12-15T17:01:00.971Z,79.46
2022-12-15T17:03:47.348Z,79.71
2022-12-15T17:06:33.139Z,79.88
2022-12-15T17:09:22.932Z,79.79
2022-12-15T17:12:15.726Z,79.87
2022-12-15T17:15:02.563Z,79.95
2022-12-15T17:17:48.623Z,79.87
2022-12-15T17:20:34.435Z,80.02
2022-12-15T17:23:22.946Z,79.72
2022-12-15T17:26:28.725Z,79.86
2022-12-15T17:29:21.821Z,79.97
2022-12-15T17:32:13.654Z,79.87
2022-12-15T17:35:00.030Z,79.81
2022-12-15T17:37:46.182Z,79.94
2022-12-15T17:40:32.370Z,79.62
2022-12-15T17:43:21.397Z,79.33
2022-12-15T17:46:07.663Z,79.94
2022-12-15T17:48:53.946Z,80.00
2022-12-15T17:51:42.087Z,80.08
2022-12-15T17:54:28.444Z,80.25
2022-12-15T17:57:15.217Z,79.89
2022-12-15T18:00:02.372Z,80.08
2022-12-15T18:02:54.863Z,80.01
2022-12-15T18:05:41.432Z,79.97
2022-12-15T18:08:28.653Z,79.94
2022-12-15T18:11:16.720Z,80.36
2022-12-15T18:14:02.221Z,80.10
2022-12-15T18:16:49.209Z,80.22
2022-12-15T18:19:35.291Z,79.54
2022-12-15T18:22:24.012Z,79.82
2022-12-15T18:25:21.731Z,79.84
2022-12-15T18:28:35.538Z,80.23
2022-12-15T18:31:29.809Z,80.40
2022-12-15T18:34:18.225Z,80.35
2022-12-15T18:37:14.053Z,80.27
2022-12-15T18:40:04.435Z,80.04
2022-12-15T18:42:51.106Z,80.16
2022-12-15T18:45:37.590Z,80.33
2022-12-15T18:48:30.528Z,80.37
2022-12-15T18:51:23.623Z,80.55
2022-12-15T18:54:23.146Z,80.20
2022-12-15T18:57:38.238Z,80.19
2022-12-15T19:00:27.969Z,80.32
2022-12-15T19:03:14.701Z,79.93
2022-12-15T19:06:02.066Z,79.94
2022-12-15T19:08:49.201Z,80.25
2022-12-15T19:11:34.872Z,79.91
2022-12-15T19:14:39.765Z,79.96
2022-12-15T19:17:43.703Z,79.76
2022-12-15T19:20:48.099Z,80.06
2022-12-15T19:23:34.023Z,80.00
2022-12-15T19:26:20.377Z,79.82
2022-12-15T19:29:21.980Z,79.67
2022-12-15T19:32:08.460Z,80.11
2022-12-15T19:34:54.613Z,80.01
2022-12-15T19:37:44.619Z,79.98
2022-12-15T19:40:32.868Z,80.15
2022-12-15T19:43:18.628Z,80.09
2022-12-15T19:46:04.842Z,79.93
2022-12-15T19:48:50.976Z,79.78
2022-12-15T19:51:37.530Z,80.03
2022-12-15T19:54:23.819Z,80.02
2022-12-15T19:57:17.922Z,79.92
2022-12-15T20:00:15.506Z,80.07
2022-12-15T20:03:02.117Z,79.95
2022-12-15T20:05:51.248Z,80.39
2022-12-15T20:08:40.710Z,80.17
2022-12-15T20:11:28.581Z,80.16
2022-12-15T20:14:17.478Z,80.25
2022-12-15T20:17:04.063Z,80.53
2022-12-15T20:19:49.599Z,80.55
2022-12-15T20:22:35.025Z,80.61
2022-12-15T20:25:27.317Z,80.92
2022-12-15T20:28:20.079Z,80.59
2022-12-15T20:31:06.052Z,80.64
2022-12-15T20:33:52.743Z,80.42
2022-12-15T20:36:38.909Z,80.49
2022-12-15T20:39:29.766Z,81.08
2022-12-15T20:42:18.842Z,80.74
2022-12-15T20:45:07.982Z,80.87
2022-12-15T20:47:59.053Z,80.99
2022-12-15T20:50:49.951Z,81.07
2022-12-15T20:53:35.433Z,81.27
2022-12-15T20:56:23.182Z,81.63
2022-12-15T20:59:08.865Z,81.36
2022-12-15T21:01:54.959Z,81.32
2022-12-15T21:04:43.376Z,80.86
2022-12-15T21:07:29.790Z,81.53
2022-12-15T21:10:17.907Z,80.99
2022-12-15T21:13:14.573Z,81.40
2022-12-15T21:16:01.209Z,81.52
2022-12-15T21:19:18.602Z,81.63
2022-12-15T21:21:56.091Z,81.38
2022-12-15T21:24:56.563Z,81.35
2022-12-15T21:27:42.705Z,82.02
2022-12-15T21:30:31.215Z,81.59
2022-12-15T21:33:17.676Z,81.83
2022-12-15T21:36:03.410Z,81.64
2022-12-15T21:38:51.917Z,81.24
2022-12-15T21:41:41.569Z,81.64
2022-12-15T21:44:27.363Z,81.63
2022-12-15T21:47:25.507Z,80.97
2022-12-15T21:50:11.733Z,81.12
2022-12-15T21:52:57.271Z,81.00
2022-12-15T21:55:45.934Z,80.47
2022-12-15T21:58:31.563Z,81.16
2022-12-15T22:01:20.953Z,81.04
2022-12-15T22:04:21.971Z,81.02
2022-12-15T22:07:14.477Z,80.65
2022-12-15T22:10:00.090Z,80.39
2022-12-15T22:12:55.908Z,79.98
2022-12-15T22:15:45.013Z,80.27
2022-12-15T22:18:30.936Z,80.08
2022-12-15T22:21:17.225Z,79.70
2022-12-15T22:24:03.032Z,79.76
2022-12-15T22:26:48.716Z,79.90
2022-12-15T22:29:34.417Z,79.71
2022-12-15T22:32:19.738Z,79.81
2022-12-15T22:35:16.237Z,79.89
2022-12-15T22:38:02.080Z,79.93
2022-12-15T22:40:51.301Z,80.14
2022-12-15T22:43:40.839Z,79.82
2022-12-15T22:46:26.752Z,79.88
2022-12-15T22:49:35.647Z,79.65
2022-12-15T22:52:21.560Z,80.01
2022-12-15T22:55:07.165Z,79.89
2022-12-15T22:58:08.280Z,79.46
2022-12-15T23:00:56.459Z,79.94
2022-12-15T23:03:42.273Z,79.63
2022-12-15T23:06:28.260Z,79.42
2022-12-15T23:09:14.077Z,79.59
2022-12-15T23:12:02.171Z,79.38
2022-12-15T23:15:06.166Z,79.96
2022-12-15T23:17:51.515Z,79.44
2022-12-15T23:20:37.647Z,79.69
2022-12-15T23:23:23.192Z,79.76
2022-12-15T23:26:08.584Z,80.04
2022-12-15T23:28:55.202Z,80.02
2022-12-15T23:31:40.766Z,80.31
2022-12-15T23:34:26.223Z,80.02
2022-12-15T23:37:12.024Z,80.14
2022-12-15T23:39:57.355Z,80.39
2022-12-15T23:42:43.148Z,80.64
2022-12-15T23:45:28.644Z,80.38
2022-12-15T23:48:15.054Z,81.06
2022-12-15T23:51:11.279Z,81.16
2022-12-15T23:53:57.038Z,81.09
2022-12-15T23:56:42.350Z,81.39
2022-12-15T23:59:28.437Z,81.91
